createdAt,value
2017-08-08T00:00:43.908Z,3.73
2017-08-08T00:03:11.755Z,4.37
2017-08-08T00:05:39.328Z,4.00
2017-08-08T00:08:06.888Z,4.10
2017-08-08T00:10:34.491Z,4.07
2017-08-08T00:13:02.083Z,4.13
2017-08-08T00:15:29.682Z,3.87
2017-08-08T00:17:57.294Z,4.23
2017-08-08T00:20:25.199Z,3.80
2017-08-08T00:22:52.766Z,4.30
2017-08-08T00:25:20.375Z,4.83
2017-08-08T00:27:47.955Z,5.30
2017-08-08T00:30:15.605Z,5.47
2017-08-08T00:32:43.193Z,5.00
2017-08-08T00:35:10.783Z,4.70
2017-08-08T00:37:39.437Z,5.03
2017-08-08T00:40:07.030Z,3.90
2017-08-08T00:42:35.579Z,4.23
2017-08-08T00:45:03.187Z,4.63
2017-08-08T00:47:30.768Z,3.93
2017-08-08T00:49:58.683Z,4.50
2017-08-08T00:52:26.284Z,4.17
2017-08-08T00:54:54.200Z,4.43
2017-08-08T00:57:21.777Z,4.43
2017-08-08T00:59:50.130Z,4.07
2017-08-08T01:02:17.729Z,4.07
2017-08-08T01:04:46.080Z,4.63
2017-08-08T01:07:13.696Z,4.10
2017-08-08T01:09:41.273Z,4.40
2017-08-08T01:12:09.147Z,4.70
2017-08-08T01:14:36.736Z,4.80
2017-08-08T01:17:04.300Z,4.40
2017-08-08T01:19:31.901Z,4.10
2017-08-08T01:21:59.492Z,4.60
2017-08-08T01:24:27.345Z,3.83
2017-08-08T01:26:54.912Z,3.80
2017-08-08T01:29:22.789Z,4.37
2017-08-08T01:31:50.370Z,5.30
2017-08-08T01:34:18.761Z,5.07
2017-08-08T01:36:47.119Z,4.20
2017-08-08T01:39:14.739Z,5.60
2017-08-08T01:41:42.328Z,5.20
2017-08-08T01:44:09.898Z,5.10
2017-08-08T01:46:37.871Z,5.67
2017-08-08T01:49:05.467Z,5.20
2017-08-08T01:51:33.035Z,5.40
2017-08-08T01:54:00.631Z,5.70
2017-08-08T01:56:28.207Z,4.50
2017-08-08T01:58:56.043Z,4.47
2017-08-08T02:01:23.620Z,4.27
2017-08-08T02:03:51.195Z,5.30
2017-08-08T02:06:18.903Z,5.13
2017-08-08T02:08:46.462Z,5.13
2017-08-08T02:11:14.339Z,5.50
2017-08-08T02:13:41.914Z,5.40
2017-08-08T02:16:09.516Z,5.40
2017-08-08T02:18:37.867Z,5.67
2017-08-08T02:21:05.445Z,5.13
2017-08-08T02:23:34.053Z,5.30
2017-08-08T02:26:01.652Z,5.63
2017-08-08T02:28:29.239Z,4.97
2017-08-08T02:30:56.883Z,4.40
2017-08-08T02:33:24.450Z,4.53
2017-08-08T02:35:52.305Z,5.00
2017-08-08T02:38:19.883Z,4.50
2017-08-08T02:40:47.459Z,5.20
2017-08-08T02:43:15.835Z,4.83
2017-08-08T02:45:44.186Z,5.77
2017-08-08T02:48:11.781Z,4.80
2017-08-08T02:50:40.120Z,4.97
2017-08-08T02:53:08.075Z,6.23
2017-08-08T02:55:35.640Z,4.93
2017-08-08T02:58:03.219Z,5.80
2017-08-08T03:00:30.811Z,5.17
2017-08-08T03:02:58.366Z,5.40
2017-08-08T03:05:25.961Z,6.80
2017-08-08T03:07:53.531Z,5.77
2017-08-08T03:10:21.400Z,5.97
2017-08-08T03:12:49.037Z,5.40
2017-08-08T03:15:16.605Z,6.03
2017-08-08T03:17:44.204Z,5.23
2017-08-08T03:20:11.823Z,5.70
2017-08-08T03:22:39.691Z,5.93
2017-08-08T03:25:07.263Z,6.20
2017-08-08T03:27:34.826Z,5.87
2017-08-08T03:30:02.701Z,5.93
2017-08-08T03:32:30.283Z,6.00
2017-08-08T03:34:57.910Z,5.37
2017-08-08T03:37:25.485Z,5.20
2017-08-08T03:39:53.451Z,6.13
2017-08-08T03:42:21.036Z,5.83
2017-08-08T03:44:48.633Z,5.90
2017-08-08T03:47:16.233Z,6.30
2017-08-08T03:49:43.815Z,6.10
2017-08-08T03:52:12.167Z,5.33
2017-08-08T03:54:39.729Z,5.70
2017-08-08T03:57:07.678Z,5.60
2017-08-08T03:59:35.246Z,5.80
2017-08-08T04:02:02.814Z,5.07
2017-08-08T04:04:30.401Z,5.60
2017-08-08T04:06:58.795Z,6.83
2017-08-08T04:09:26.719Z,6.40
2017-08-08T04:11:54.305Z,5.50
2017-08-08T04:14:22.648Z,5.40
2017-08-08T04:16:50.231Z,5.97
2017-08-08T04:19:17.809Z,5.70
2017-08-08T04:21:46.178Z,5.37
2017-08-08T04:24:14.526Z,5.60
2017-08-08T04:26:42.482Z,5.77
2017-08-08T04:29:10.060Z,7.17
2017-08-08T04:31:37.634Z,5.50
2017-08-08T04:34:05.284Z,5.70
2017-08-08T04:36:32.885Z,5.80
2017-08-08T04:39:00.495Z,5.40
2017-08-08T04:41:28.089Z,6.03
2017-08-08T04:43:56.732Z,5.13
2017-08-08T04:46:24.420Z,6.93
2017-08-08T04:48:52.013Z,5.10
2017-08-08T04:51:19.617Z,5.70
2017-08-08T04:53:47.333Z,5.77
2017-08-08T04:56:15.015Z,5.13
2017-08-08T04:58:42.577Z,5.43
2017-08-08T05:01:10.462Z,5.93
2017-08-08T05:03:38.033Z,5.40
2017-08-08T05:06:05.609Z,5.93
2017-08-08T05:08:33.202Z,6.20
2017-08-08T05:11:00.788Z,6.00
2017-08-08T05:13:28.381Z,5.23
2017-08-08T05:15:55.975Z,4.57
2017-08-08T05:18:23.893Z,6.30
2017-08-08T05:20:51.482Z,5.20
2017-08-08T05:23:19.103Z,5.83
2017-08-08T05:25:46.799Z,4.93
2017-08-08T05:28:15.123Z,4.67
2017-08-08T05:30:43.020Z,4.93
2017-08-08T05:33:10.603Z,5.83
2017-08-08T05:35:38.198Z,5.27
2017-08-08T05:38:05.790Z,6.03
2017-08-08T05:40:33.358Z,5.50
2017-08-08T05:43:00.969Z,5.30
2017-08-08T05:45:28.548Z,5.40
2017-08-08T05:47:56.517Z,6.27
2017-08-08T05:50:24.095Z,5.13
2017-08-08T05:52:51.675Z,5.20
2017-08-08T05:55:19.297Z,5.47
2017-08-08T05:57:46.877Z,5.87
2017-08-08T06:00:14.502Z,5.20
2017-08-08T06:02:42.057Z,5.90
2017-08-08T06:05:10.074Z,6.50
2017-08-08T06:07:37.652Z,6.80
2017-08-08T06:10:05.214Z,6.30
2017-08-08T06:12:32.808Z,6.30
2017-08-08T06:15:00.372Z,7.23
2017-08-08T06:17:27.990Z,7.03
2017-08-08T06:19:55.562Z,7.20
2017-08-08T06:22:24.258Z,7.30
2017-08-08T06:24:52.599Z,6.90
2017-08-08T06:27:20.166Z,7.00
2017-08-08T06:29:47.742Z,7.50
2017-08-08T06:32:16.120Z,6.70
2017-08-08T06:34:44.490Z,7.50
2017-08-08T06:37:12.253Z,8.20
2017-08-08T06:39:40.274Z,8.20
2017-08-08T06:42:07.848Z,7.93
2017-08-08T06:44:35.402Z,8.20
2017-08-08T06:47:03.014Z,9.60
2017-08-08T06:49:31.355Z,9.03
2017-08-08T06:51:59.334Z,8.00
2017-08-08T06:54:26.916Z,8.07
2017-08-08T06:56:55.298Z,8.33
2017-08-08T06:59:22.902Z,8.90
2017-08-08T07:01:50.479Z,9.97
2017-08-08T07:04:18.375Z,10.17
2017-08-08T07:06:45.986Z,9.43
2017-08-08T07:09:13.564Z,9.33
2017-08-08T07:11:41.159Z,10.23
2017-08-08T07:14:09.481Z,9.83
2017-08-08T07:16:37.073Z,9.70
2017-08-08T07:19:04.667Z,8.87
2017-08-08T07:21:33.316Z,10.27
2017-08-08T07:24:00.899Z,9.50
2017-08-08T07:26:29.243Z,8.37
2017-08-08T07:28:56.879Z,9.40
2017-08-08T07:31:24.464Z,8.90
2017-08-08T07:33:52.102Z,9.20
2017-08-08T07:36:19.676Z,10.37
2017-08-08T07:38:47.556Z,9.30
2017-08-08T07:41:15.160Z,10.00
2017-08-08T07:43:43.520Z,9.03
2017-08-08T07:46:12.130Z,9.77
2017-08-08T07:48:39.714Z,8.90
2017-08-08T07:51:07.319Z,9.17
2017-08-08T07:53:34.969Z,9.07
2017-08-08T07:56:03.002Z,8.10
2017-08-08T07:58:30.556Z,6.70
2017-08-08T08:00:58.138Z,7.90
2017-08-08T08:03:26.008Z,6.27
2017-08-08T08:05:54.197Z,6.60
2017-08-08T08:08:21.843Z,5.83
2017-08-08T08:10:49.407Z,6.33
2017-08-08T08:13:17.266Z,5.40
2017-08-08T08:15:44.869Z,5.27
2017-08-08T08:18:13.211Z,5.93
2017-08-08T08:20:40.832Z,5.30
2017-08-08T08:23:08.402Z,5.77
2017-08-08T08:25:35.984Z,6.10
2017-08-08T08:28:03.578Z,5.87
2017-08-08T08:30:31.455Z,5.10
2017-08-08T08:32:59.795Z,4.77
2017-08-08T08:35:27.369Z,5.07
2017-08-08T08:37:54.968Z,5.03
2017-08-08T08:40:22.542Z,5.80
2017-08-08T08:42:50.140Z,3.90
2017-08-08T08:45:17.734Z,4.40
2017-08-08T08:47:46.376Z,5.20
2017-08-08T08:50:13.953Z,4.77
2017-08-08T08:52:41.545Z,4.87
2017-08-08T08:55:09.175Z,4.20
2017-08-08T08:57:36.749Z,4.53
2017-08-08T09:00:04.417Z,4.97
2017-08-08T09:02:32.774Z,4.40
2017-08-08T09:05:00.730Z,5.33
2017-08-08T09:07:29.380Z,5.23
2017-08-08T09:09:56.980Z,5.60
2017-08-08T09:12:24.599Z,5.73
2017-08-08T09:14:52.180Z,5.30
2017-08-08T09:17:19.784Z,5.87
2017-08-08T09:19:48.212Z,6.63
2017-08-08T09:22:16.107Z,6.17
2017-08-08T09:24:43.682Z,6.50
2017-08-08T09:27:11.280Z,6.83
2017-08-08T09:29:38.893Z,6.23
2017-08-08T09:32:06.510Z,5.57
2017-08-08T09:34:34.094Z,6.23
2017-08-08T09:37:01.666Z,7.60
2017-08-08T09:39:29.651Z,6.70
2017-08-08T09:41:57.985Z,6.53
2017-08-08T09:44:25.577Z,6.33
2017-08-08T09:46:53.190Z,6.10
2017-08-08T09:49:20.770Z,6.63
2017-08-08T09:51:48.377Z,6.13
2017-08-08T09:54:16.708Z,7.07
2017-08-08T09:56:44.646Z,5.87
2017-08-08T09:59:12.256Z,5.37
2017-08-08T10:01:39.885Z,5.50
2017-08-08T10:04:07.494Z,5.73
2017-08-08T10:06:35.851Z,5.37
2017-08-08T10:09:03.438Z,5.20
2017-08-08T10:11:31.859Z,5.00
2017-08-08T10:13:59.820Z,5.23
2017-08-08T10:16:27.407Z,6.33
2017-08-08T10:18:55.021Z,5.27
2017-08-08T10:21:22.642Z,5.83
2017-08-08T10:23:50.222Z,5.67
2017-08-08T10:26:17.813Z,5.40
2017-08-08T10:28:45.401Z,5.20
2017-08-08T10:31:13.322Z,5.43
2017-08-08T10:33:40.888Z,6.17
2017-08-08T10:36:08.457Z,6.50
2017-08-08T10:38:36.091Z,6.43
2017-08-08T10:41:03.685Z,6.00
2017-08-08T10:43:31.288Z,6.37
2017-08-08T10:45:58.864Z,8.27
2017-08-08T10:48:27.212Z,7.80
2017-08-08T10:50:55.174Z,6.87
2017-08-08T10:53:22.788Z,5.87
2017-08-08T10:55:50.368Z,5.60
2017-08-08T10:58:18.037Z,6.60
2017-08-08T11:00:45.699Z,6.70
2017-08-08T11:03:13.666Z,5.10
2017-08-08T11:05:41.244Z,6.00
2017-08-08T11:08:08.923Z,9.67
2017-08-08T11:10:36.538Z,8.47
2017-08-08T11:13:04.154Z,5.80
2017-08-08T11:15:32.009Z,5.67
2017-08-08T11:17:59.546Z,5.20
2017-08-08T11:20:27.131Z,5.67
2017-08-08T11:22:54.725Z,4.93
2017-08-08T11:25:22.333Z,4.90
2017-08-08T11:27:50.187Z,4.40
2017-08-08T11:30:17.764Z,4.50
2017-08-08T11:32:45.769Z,4.67
2017-08-08T11:35:14.095Z,4.70
2017-08-08T11:37:41.672Z,4.73
2017-08-08T11:40:09.300Z,4.70
2017-08-08T11:42:36.870Z,4.80
2017-08-08T11:45:04.471Z,4.80
2017-08-08T11:47:32.030Z,4.70
2017-08-08T11:49:59.904Z,4.10
2017-08-08T11:52:28.268Z,4.83
2017-08-08T11:54:55.842Z,4.10
2017-08-08T11:57:24.223Z,4.97
2017-08-08T11:59:52.577Z,3.70
2017-08-08T12:02:20.976Z,4.23
2017-08-08T12:04:49.332Z,3.70
2017-08-08T12:07:17.200Z,3.50
2017-08-08T12:09:44.779Z,3.60
2017-08-08T12:12:13.147Z,3.87
2017-08-08T12:14:40.751Z,3.63
2017-08-08T12:17:08.436Z,3.40
2017-08-08T12:19:36.027Z,3.33
2017-08-08T12:22:03.605Z,2.67
2017-08-08T12:24:32.248Z,2.47
2017-08-08T12:26:59.842Z,2.50
2017-08-08T12:29:27.439Z,2.73
2017-08-08T12:31:55.029Z,2.30
2017-08-08T12:34:22.663Z,2.33
2017-08-08T12:36:50.264Z,2.90
2017-08-08T12:39:17.864Z,2.20
2017-08-08T12:41:45.767Z,2.27
2017-08-08T12:44:13.365Z,2.93
2017-08-08T12:46:40.939Z,2.53
2017-08-08T12:49:09.351Z,2.43
2017-08-08T12:51:36.931Z,2.40
2017-08-08T12:54:04.579Z,2.33
2017-08-08T12:56:32.371Z,2.60
2017-08-08T12:59:00.435Z,2.50
2017-08-08T13:01:28.042Z,2.53
2017-08-08T13:03:55.631Z,1.90
2017-08-08T13:06:24.097Z,2.40
2017-08-08T13:08:51.689Z,2.73
2017-08-08T13:11:19.291Z,2.10
2017-08-08T13:13:46.991Z,2.17
2017-08-08T13:16:14.885Z,2.00
2017-08-08T13:18:42.676Z,2.10
2017-08-08T13:21:10.261Z,1.90
2017-08-08T13:23:37.883Z,2.00
2017-08-08T13:26:05.467Z,1.90
2017-08-08T13:28:33.841Z,1.93
2017-08-08T13:31:02.257Z,2.40
2017-08-08T13:33:30.151Z,2.20
2017-08-08T13:35:57.755Z,1.87
2017-08-08T13:38:25.334Z,2.50
2017-08-08T13:40:53.040Z,1.90
2017-08-08T13:43:20.641Z,1.97
2017-08-08T13:45:48.296Z,1.90
2017-08-08T13:48:16.661Z,2.03
2017-08-08T13:50:45.326Z,1.93
2017-08-08T13:53:12.967Z,2.43
2017-08-08T13:55:41.306Z,2.23
2017-08-08T13:58:08.925Z,2.37
2017-08-08T14:00:36.512Z,2.37
2017-08-08T14:03:04.880Z,2.27
2017-08-08T14:05:32.460Z,2.43
2017-08-08T14:08:00.731Z,2.13
2017-08-08T14:10:29.076Z,2.00
2017-08-08T14:12:56.668Z,2.40
2017-08-08T14:15:25.059Z,2.27
2017-08-08T14:17:52.658Z,2.47
2017-08-08T14:20:20.526Z,2.30
2017-08-08T14:22:48.099Z,2.60
2017-08-08T14:25:15.700Z,2.07
2017-08-08T14:27:43.341Z,2.67
2017-08-08T14:30:10.912Z,2.90
2017-08-08T14:32:39.663Z,2.80
2017-08-08T14:35:07.268Z,2.47
2017-08-08T14:37:34.850Z,2.30
2017-08-08T14:40:02.437Z,2.30
2017-08-08T14:42:30.024Z,2.60
2017-08-08T14:44:58.755Z,2.50
2017-08-08T14:47:26.366Z,2.53
2017-08-08T14:49:53.922Z,2.30
2017-08-08T14:52:21.533Z,2.43
2017-08-08T14:54:49.109Z,2.27
2017-08-08T14:57:16.724Z,1.90
2017-08-08T14:59:45.082Z,2.70
2017-08-08T15:02:13.744Z,2.57
2017-08-08T15:04:41.316Z,2.10
2017-08-08T15:07:08.913Z,2.00
2017-08-08T15:09:36.538Z,2.40
2017-08-08T15:12:04.124Z,2.33
2017-08-08T15:14:31.995Z,2.90
2017-08-08T15:16:59.566Z,2.40
2017-08-08T15:19:27.248Z,2.60
2017-08-08T15:21:54.858Z,2.70
2017-08-08T15:24:22.480Z,2.23
2017-08-08T15:26:50.132Z,2.40
2017-08-08T15:29:17.886Z,2.37
2017-08-08T15:31:45.729Z,2.20
2017-08-08T15:34:13.322Z,2.20
2017-08-08T15:36:40.923Z,2.47
2017-08-08T15:39:08.568Z,2.10
2017-08-08T15:41:36.150Z,2.80
2017-08-08T15:44:04.526Z,2.30
2017-08-08T15:46:32.895Z,2.53
2017-08-08T15:49:00.954Z,2.20
2017-08-08T15:51:28.537Z,2.70
2017-08-08T15:53:56.916Z,2.43
2017-08-08T15:56:25.274Z,2.57
2017-08-08T15:58:52.868Z,2.00
2017-08-08T16:01:21.237Z,2.60
2017-08-08T16:03:48.817Z,2.70
2017-08-08T16:06:16.727Z,2.30
2017-08-08T16:08:45.089Z,2.80
2017-08-08T16:11:12.742Z,2.80
2017-08-08T16:13:40.400Z,2.40
2017-08-08T16:16:07.972Z,2.60
2017-08-08T16:18:35.582Z,2.07
2017-08-08T16:21:03.952Z,2.23
2017-08-08T16:23:32.721Z,2.20
2017-08-08T16:26:00.340Z,2.00
2017-08-08T16:28:28.048Z,2.50
2017-08-08T16:30:55.649Z,2.10
2017-08-08T16:33:23.246Z,2.30
2017-08-08T16:35:50.870Z,2.33
2017-08-08T16:38:18.469Z,2.43
2017-08-08T16:40:46.522Z,2.57
2017-08-08T16:43:14.113Z,2.60
2017-08-08T16:45:41.745Z,2.60
2017-08-08T16:48:09.308Z,2.33
2017-08-08T16:50:37.072Z,2.10
2017-08-08T16:53:04.863Z,2.50
2017-08-08T16:55:32.451Z,2.67
2017-08-08T16:58:01.166Z,2.20
2017-08-08T17:00:28.769Z,2.33
2017-08-08T17:02:56.414Z,2.83
2017-08-08T17:05:24.065Z,2.30
2017-08-08T17:07:51.647Z,2.30
2017-08-08T17:10:19.238Z,2.30
2017-08-08T17:12:47.604Z,2.50
2017-08-08T17:15:15.487Z,2.40
2017-08-08T17:17:43.282Z,2.60
2017-08-08T17:20:10.875Z,2.53
2017-08-08T17:22:38.463Z,3.07
2017-08-08T17:25:06.070Z,2.20
2017-08-08T17:27:33.735Z,2.30
2017-08-08T17:30:01.313Z,2.70
2017-08-08T17:32:29.991Z,2.90
2017-08-08T17:34:57.625Z,2.70
2017-08-08T17:37:25.247Z,3.20
2017-08-08T17:39:53.819Z,4.27
2017-08-08T17:42:21.389Z,5.00
2017-08-08T17:44:49.772Z,4.47
2017-08-08T17:47:17.361Z,4.10
2017-08-08T17:49:45.608Z,3.73
2017-08-08T17:52:13.217Z,3.43
2017-08-08T17:54:40.820Z,4.27
2017-08-08T17:57:08.479Z,4.10
2017-08-08T17:59:36.098Z,5.13
2017-08-08T18:02:03.710Z,4.90
2017-08-08T18:04:32.081Z,6.43
2017-08-08T18:07:00.741Z,6.60
2017-08-08T18:09:28.330Z,6.80
2017-08-08T18:11:56.729Z,5.90
2017-08-08T18:14:24.344Z,5.13
2017-08-08T18:16:51.933Z,6.90
2017-08-08T18:19:20.307Z,6.10
2017-08-08T18:21:48.674Z,5.53
2017-08-08T18:24:17.332Z,5.27
2017-08-08T18:26:44.906Z,5.70
2017-08-08T18:29:12.485Z,4.30
2017-08-08T18:31:40.861Z,4.00
2017-08-08T18:34:08.464Z,4.43
2017-08-08T18:36:36.055Z,4.67
2017-08-08T18:39:03.658Z,4.57
2017-08-08T18:41:31.584Z,5.23
2017-08-08T18:43:59.178Z,5.13
2017-08-08T18:46:27.554Z,4.10
2017-08-08T18:48:55.941Z,9.00
2017-08-08T18:51:25.147Z,7.27
2017-08-08T18:53:53.532Z,6.33
2017-08-08T18:56:21.123Z,7.63
2017-08-08T18:58:49.862Z,5.77
2017-08-08T19:01:18.261Z,3.23
2017-08-08T19:03:46.085Z,2.90
2017-08-08T19:06:13.667Z,2.50
2017-08-08T19:08:42.044Z,2.60
2017-08-08T19:11:10.458Z,1.93
2017-08-08T19:13:38.108Z,2.40
2017-08-08T19:16:05.972Z,2.43
2017-08-08T19:18:33.607Z,2.07
2017-08-08T19:21:02.033Z,2.77
2017-08-08T19:23:29.680Z,2.10
2017-08-08T19:25:57.289Z,2.00
2017-08-08T19:28:25.986Z,2.33
2017-08-08T19:30:53.601Z,1.90
2017-08-08T19:33:21.565Z,2.73
2017-08-08T19:35:49.190Z,2.30
2017-08-08T19:38:17.600Z,2.97
2017-08-08T19:40:45.943Z,3.33
2017-08-08T19:43:13.984Z,2.90
2017-08-08T19:45:42.536Z,2.20
2017-08-08T19:48:11.198Z,2.73
2017-08-08T19:50:38.813Z,2.90
2017-08-08T19:53:06.421Z,2.00
2017-08-08T19:55:34.478Z,2.30
2017-08-08T19:58:02.520Z,2.37
2017-08-08T20:00:30.412Z,2.30
2017-08-08T20:02:58.798Z,1.80
2017-08-08T20:05:26.475Z,2.50
2017-08-08T20:07:54.070Z,2.80
2017-08-08T20:10:22.139Z,2.63
2017-08-08T20:12:49.990Z,1.80
2017-08-08T20:15:17.798Z,2.33
2017-08-08T20:17:45.619Z,2.80
2017-08-08T20:20:13.262Z,2.50
2017-08-08T20:22:40.975Z,2.73
2017-08-08T20:25:08.591Z,2.57
2017-08-08T20:27:36.173Z,2.80
2017-08-08T20:30:03.799Z,2.60
2017-08-08T20:32:31.430Z,3.40
2017-08-08T20:34:59.545Z,3.23
2017-08-08T20:37:27.160Z,3.60
2017-08-08T20:39:55.471Z,3.20
2017-08-08T20:42:23.090Z,3.20
2017-08-08T20:44:50.701Z,2.83
2017-08-08T20:47:18.279Z,2.73
2017-08-08T20:49:45.880Z,2.80
2017-08-08T20:52:14.829Z,2.70
2017-08-08T20:54:43.244Z,3.33
2017-08-08T20:57:10.837Z,3.10
2017-08-08T20:59:39.095Z,2.90
2017-08-08T21:02:06.725Z,3.63
2017-08-08T21:04:34.570Z,3.30
2017-08-08T21:07:02.164Z,3.80
2017-08-08T21:09:30.144Z,4.40
2017-08-08T21:11:58.515Z,3.60
2017-08-08T21:14:26.889Z,3.50
2017-08-08T21:16:54.607Z,3.13
2017-08-08T21:19:22.199Z,3.30
2017-08-08T21:21:50.170Z,2.97
2017-08-08T21:24:18.070Z,3.60
2017-08-08T21:26:45.664Z,3.17
2017-08-08T21:29:13.299Z,3.47
2017-08-08T21:31:40.917Z,3.13
2017-08-08T21:34:09.722Z,2.60
2017-08-08T21:36:38.099Z,2.40
2017-08-08T21:39:06.785Z,4.20
2017-08-08T21:41:35.142Z,3.10
2017-08-08T21:44:02.746Z,3.60
2017-08-08T21:46:30.395Z,2.93
2017-08-08T21:48:58.747Z,2.97
2017-08-08T21:51:26.366Z,2.33
2017-08-08T21:53:53.981Z,2.60
2017-08-08T21:56:21.849Z,2.40
2017-08-08T21:58:50.224Z,2.43
2017-08-08T22:01:17.787Z,2.80
2017-08-08T22:03:45.515Z,3.07
2017-08-08T22:06:13.123Z,2.70
2017-08-08T22:08:41.467Z,2.60
2017-08-08T22:11:09.101Z,2.70
2017-08-08T22:13:37.207Z,2.60
2017-08-08T22:16:04.792Z,3.20
2017-08-08T22:18:33.134Z,3.40
2017-08-08T22:21:00.749Z,3.23
2017-08-08T22:23:28.337Z,3.80
2017-08-08T22:25:55.932Z,2.90
2017-08-08T22:28:23.521Z,3.43
2017-08-08T22:30:51.471Z,3.47
2017-08-08T22:33:19.179Z,3.73
2017-08-08T22:35:46.765Z,3.27
2017-08-08T22:38:14.398Z,3.03
2017-08-08T22:40:41.971Z,2.93
2017-08-08T22:43:09.566Z,2.43
2017-08-08T22:45:37.908Z,3.17
2017-08-08T22:48:05.788Z,3.33
2017-08-08T22:50:33.364Z,2.90
2017-08-08T22:53:00.945Z,2.87
2017-08-08T22:55:28.634Z,3.00
2017-08-08T22:57:56.228Z,2.67
2017-08-08T23:00:23.800Z,3.50
2017-08-08T23:02:51.373Z,2.77
2017-08-08T23:05:19.969Z,2.73
2017-08-08T23:07:48.376Z,3.37
2017-08-08T23:10:15.961Z,3.27
2017-08-08T23:12:43.567Z,3.47
2017-08-08T23:15:11.902Z,3.40
2017-08-08T23:17:39.519Z,3.70
2017-08-08T23:20:07.092Z,3.77
2017-08-08T23:22:34.978Z,3.50
2017-08-08T23:25:02.543Z,3.77
2017-08-08T23:27:30.139Z,2.87
2017-08-08T23:29:58.524Z,3.27
2017-08-08T23:32:26.875Z,3.97
2017-08-08T23:34:54.495Z,3.90
2017-08-08T23:37:39.699Z,3.67
2017-08-08T23:40:07.319Z,4.60
2017-08-08T23:42:34.877Z,3.80
2017-08-08T23:45:02.484Z,4.03
2017-08-08T23:47:30.102Z,4.33
2017-08-08T23:49:58.517Z,4.83
2017-08-08T23:52:26.125Z,4.10
2017-08-08T23:54:53.701Z,4.47
2017-08-08T23:57:21.701Z,5.40
2017-08-08T23:59:49.448Z,5.23
